Archival Weather

Norman Y Mineta San Jose Intl

San Jose, California (KSJC)

Report from: Thursday, February 22, 2024 9:53 PM PST
Current time: Saturday, June 22, 2024 3:40 AM PDT

Current weather – Weather history – Daily summaries
Weather forecast

Temperature12.8°C (55.0°F)
Dew point7.8°C (46.0°F)
Winds 5 kts (2.6 m/s, 5.8 mph) South-Southwest (210°)
Visibility10 mi. (16.1 km)
Clouds Sky clear
Altimeter30.24 in.Hg (1024 mB)
Relative humidity72 %
Density altitude-465 ft. (-142 m)
Sea-level pressure102.4 kPa (1024 mB, 30.23 in.Hg)
Max temp last 6 hours17.8°C (64.0°F)
Min temp last 6 hours12.2°C (54.0°F)
Remarks Automated weather observing station with precipitation discriminator
Pressure rising more slowly
Flight conditions Visual Meteorological Conditions
Raw dataKSJC 230553Z 21005KT 10SM CLR 13/08 A3024 RMK AO2 SLP238 T01280078 10178 20122 51014
An error has occurred. This application may no longer respond until reloaded. Reload 🗙